sensor_id;sensor_type;location;lat;lon;timestamp;temperature;humidity
70820;DHT22;58439;51.046;13.692;2023-04-16T00:02:07;8.10;99.90
70820;DHT22;58439;51.046;13.692;2023-04-16T00:04:34;8.10;99.90
70820;DHT22;58439;51.046;13.692;2023-04-16T00:07:02;8.00;99.90
70820;DHT22;58439;51.046;13.692;2023-04-16T00:09:30;8.00;99.90
70820;DHT22;58439;51.046;13.692;2023-04-16T00:11:58;7.90;99.90
70820;DHT22;58439;51.046;13.692;2023-04-16T00:14:25;7.90;99.90
70820;DHT22;58439;51.046;13.692;2023-04-16T00:16:52;7.80;99.90
70820;DHT22;58439;51.046;13.692;2023-04-16T00:19:19;7.80;99.90
70820;DHT22;58439;51.046;13.692;2023-04-16T00:21:47;7.80;99.90
70820;DHT22;58439;51.046;13.692;2023-04-16T00:24:14;7.80;99.90
70820;DHT22;58439;51.046;13.692;2023-04-16T00:26:42;7.80;99.90
70820;DHT22;58439;51.046;13.692;2023-04-16T00:29:12;7.80;99.90
70820;DHT22;58439;51.046;13.692;2023-04-16T00:31:39;7.80;99.90
70820;DHT22;58439;51.046;13.692;2023-04-16T00:34:06;7.80;99.90
70820;DHT22;58439;51.046;13.692;2023-04-16T00:36:34;7.70;99.90
70820;DHT22;58439;51.046;13.692;2023-04-16T00:39:01;7.70;99.90
70820;DHT22;58439;51.046;13.692;2023-04-16T00:41:29;7.70;99.90
70820;DHT22;58439;51.046;13.692;2023-04-16T00:43:56;7.70;99.90
70820;DHT22;58439;51.046;13.692;2023-04-16T00:46:24;7.60;99.90
70820;DHT22;58439;51.046;13.692;2023-04-16T00:48:58;7.60;99.90
70820;DHT22;58439;51.046;13.692;2023-04-16T00:51:27;7.60;99.90
70820;DHT22;58439;51.046;13.692;2023-04-16T00:53:56;7.60;99.90
70820;DHT22;58439;51.046;13.692;2023-04-16T00:56:24;7.50;99.90
70820;DHT22;58439;51.046;13.692;2023-04-16T00:58:51;7.50;99.90
70820;DHT22;58439;51.046;13.692;2023-04-16T01:01:21;7.40;99.90
70820;DHT22;58439;51.046;13.692;2023-04-16T01:03:49;7.40;99.90
70820;DHT22;58439;51.046;13.692;2023-04-16T01:06:17;7.30;99.90
70820;DHT22;58439;51.046;13.692;2023-04-16T01:08:48;7.30;99.90
70820;DHT22;58439;51.046;13.692;2023-04-16T01:11:18;7.30;99.90
70820;DHT22;58439;51.046;13.692;2023-04-16T01:13:45;7.30;99.90
70820;DHT22;58439;51.046;13.692;2023-04-16T01:16:12;7.20;99.90
70820;DHT22;58439;51.046;13.692;2023-04-16T01:18:40;7.20;99.90
70820;DHT22;58439;51.046;13.692;2023-04-16T01:21:08;7.20;99.90
70820;DHT22;58439;51.046;13.692;2023-04-16T01:23:35;7.20;99.90
70820;DHT22;58439;51.046;13.692;2023-04-16T01:26:03;7.20;99.90
70820;DHT22;58439;51.046;13.692;2023-04-16T01:28:31;7.20;99.90
70820;DHT22;58439;51.046;13.692;2023-04-16T01:30:58;7.20;99.90
70820;DHT22;58439;51.046;13.692;2023-04-16T01:33:39;7.10;99.90
70820;DHT22;58439;51.046;13.692;2023-04-16T01:36:06;7.10;99.90
70820;DHT22;58439;51.046;13.692;2023-04-16T01:38:34;7.10;99.90
70820;DHT22;58439;51.046;13.692;2023-04-16T01:41:01;7.00;99.90
70820;DHT22;58439;51.046;13.692;2023-04-16T01:43:32;7.00;99.90
70820;DHT22;58439;51.046;13.692;2023-04-16T01:46:32;7.00;99.90
70820;DHT22;58439;51.046;13.692;2023-04-16T01:49:01;7.00;99.90
70820;DHT22;58439;51.046;13.692;2023-04-16T01:51:30;7.00;99.90
70820;DHT22;58439;51.046;13.692;2023-04-16T01:53:58;7.00;99.90
70820;DHT22;58439;51.046;13.692;2023-04-16T01:56:26;6.90;99.90
70820;DHT22;58439;51.046;13.692;2023-04-16T01:59:01;6.90;99.90
70820;DHT22;58439;51.046;13.692;2023-04-16T02:01:35;6.90;99.90
70820;DHT22;58439;51.046;13.692;2023-04-16T02:04:03;6.80;99.90
70820;DHT22;58439;51.046;13.692;2023-04-16T02:06:31;6.80;99.90
70820;DHT22;58439;51.046;13.692;2023-04-16T02:08:58;6.70;99.90
70820;DHT22;58439;51.046;13.692;2023-04-16T02:11:26;6.70;99.90
70820;DHT22;58439;51.046;13.692;2023-04-16T02:13:55;6.60;99.90
70820;DHT22;58439;51.046;13.692;2023-04-16T02:16:22;6.50;99.90
70820;DHT22;58439;51.046;13.692;2023-04-16T02:18:59;6.50;99.90
70820;DHT22;58439;51.046;13.692;2023-04-16T02:21:29;6.40;99.90
70820;DHT22;58439;51.046;13.692;2023-04-16T02:27:56;6.40;99.90
70820;DHT22;58439;51.046;13.692;2023-04-16T02:30:30;6.40;99.90
70820;DHT22;58439;51.046;13.692;2023-04-16T02:32:57;6.30;99.90
70820;DHT22;58439;51.046;13.692;2023-04-16T02:35:26;6.30;99.90
70820;DHT22;58439;51.046;13.692;2023-04-16T02:37:53;6.30;99.90
70820;DHT22;58439;51.046;13.692;2023-04-16T02:40:23;6.20;99.90
70820;DHT22;58439;51.046;13.692;2023-04-16T02:42:52;6.20;99.90
70820;DHT22;58439;51.046;13.692;2023-04-16T02:45:20;6.10;99.90
70820;DHT22;58439;51.046;13.692;2023-04-16T02:47:49;6.20;99.90
70820;DHT22;58439;51.046;13.692;2023-04-16T02:50:17;6.20;99.90
70820;DHT22;58439;51.046;13.692;2023-04-16T02:52:44;6.10;99.90
70820;DHT22;58439;51.046;13.692;2023-04-16T02:55:12;6.20;99.90
70820;DHT22;58439;51.046;13.692;2023-04-16T02:57:39;6.20;99.90
70820;DHT22;58439;51.046;13.692;2023-04-16T03:00:08;6.20;99.90
70820;DHT22;58439;51.046;13.692;2023-04-16T03:02:36;6.30;99.90
70820;DHT22;58439;51.046;13.692;2023-04-16T03:05:04;6.30;99.90
70820;DHT22;58439;51.046;13.692;2023-04-16T03:07:32;6.30;99.90
70820;DHT22;58439;51.046;13.692;2023-04-16T03:09:59;6.30;99.90
70820;DHT22;58439;51.046;13.692;2023-04-16T03:12:27;6.30;99.90
70820;DHT22;58439;51.046;13.692;2023-04-16T03:14:55;6.30;99.90
70820;DHT22;58439;51.046;13.692;2023-04-16T03:17:22;6.30;99.90
70820;DHT22;58439;51.046;13.692;2023-04-16T03:19:50;6.30;99.90
70820;DHT22;58439;51.046;13.692;2023-04-16T03:22:21;6.20;99.90
70820;DHT22;58439;51.046;13.692;2023-04-16T03:24:49;6.20;99.90
70820;DHT22;58439;51.046;13.692;2023-04-16T03:27:17;6.10;99.90
70820;DHT22;58439;51.046;13.692;2023-04-16T03:29:45;6.10;99.90
70820;DHT22;58439;51.046;13.692;2023-04-16T03:32:12;6.10;99.90
70820;DHT22;58439;51.046;13.692;2023-04-16T03:34:39;6.10;99.90
70820;DHT22;58439;51.046;13.692;2023-04-16T03:37:07;6.00;99.90
70820;DHT22;58439;51.046;13.692;2023-04-16T03:39:38;6.00;99.90
70820;DHT22;58439;51.046;13.692;2023-04-16T03:42:06;5.90;99.90
70820;DHT22;58439;51.046;13.692;2023-04-16T03:44:34;5.90;99.90
70820;DHT22;58439;51.046;13.692;2023-04-16T03:47:01;5.90;99.90
70820;DHT22;58439;51.046;13.692;2023-04-16T03:49:29;5.90;99.90
70820;DHT22;58439;51.046;13.692;2023-04-16T03:51:59;5.80;99.90
70820;DHT22;58439;51.046;13.692;2023-04-16T03:54:27;5.80;99.90
70820;DHT22;58439;51.046;13.692;2023-04-16T03:57:05;5.80;99.90
70820;DHT22;58439;51.046;13.692;2023-04-16T03:59:33;5.70;99.90
70820;DHT22;58439;51.046;13.692;2023-04-16T04:02:00;5.70;99.90
70820;DHT22;58439;51.046;13.692;2023-04-16T04:04:28;5.70;99.90
70820;DHT22;58439;51.046;13.692;2023-04-16T04:06:57;5.70;99.90
70820;DHT22;58439;51.046;13.692;2023-04-16T04:09:26;5.70;99.90
70820;DHT22;58439;51.046;13.692;2023-04-16T04:11:54;5.60;99.90
70820;DHT22;58439;51.046;13.692;2023-04-16T04:14:22;5.60;99.90
70820;DHT22;58439;51.046;13.692;2023-04-16T04:16:49;5.60;99.90
70820;DHT22;58439;51.046;13.692;2023-04-16T04:19:16;5.50;99.90
70820;DHT22;58439;51.046;13.692;2023-04-16T04:21:44;5.50;99.90
70820;DHT22;58439;51.046;13.692;2023-04-16T04:24:12;5.50;99.90
70820;DHT22;58439;51.046;13.692;2023-04-16T04:27:08;5.60;99.90
70820;DHT22;58439;51.046;13.692;2023-04-16T04:29:36;5.60;99.90
70820;DHT22;58439;51.046;13.692;2023-04-16T04:32:04;5.70;99.90
70820;DHT22;58439;51.046;13.692;2023-04-16T04:34:33;5.80;99.90
70820;DHT22;58439;51.046;13.692;2023-04-16T04:37:01;5.90;99.90
70820;DHT22;58439;51.046;13.692;2023-04-16T04:39:29;5.90;99.90
70820;DHT22;58439;51.046;13.692;2023-04-16T04:41:56;6.00;99.90
70820;DHT22;58439;51.046;13.692;2023-04-16T04:44:23;6.20;99.90
70820;DHT22;58439;51.046;13.692;2023-04-16T04:46:51;6.30;99.90
70820;DHT22;58439;51.046;13.692;2023-04-16T04:49:18;6.40;99.90
70820;DHT22;58439;51.046;13.692;2023-04-16T04:51:46;6.30;99.90
70820;DHT22;58439;51.046;13.692;2023-04-16T04:54:17;6.20;99.90
70820;DHT22;58439;51.046;13.692;2023-04-16T04:56:44;6.20;99.90
70820;DHT22;58439;51.046;13.692;2023-04-16T04:59:13;6.20;99.90
70820;DHT22;58439;51.046;13.692;2023-04-16T05:01:41;6.30;99.90
70820;DHT22;58439;51.046;13.692;2023-04-16T05:04:08;6.30;99.90
70820;DHT22;58439;51.046;13.692;2023-04-16T05:06:35;6.30;99.90
70820;DHT22;58439;51.046;13.692;2023-04-16T05:09:03;6.30;99.90
70820;DHT22;58439;51.046;13.692;2023-04-16T05:11:30;6.30;99.90
70820;DHT22;58439;51.046;13.692;2023-04-16T05:13:59;6.40;99.90
70820;DHT22;58439;51.046;13.692;2023-04-16T05:16:28;6.50;99.90
70820;DHT22;58439;51.046;13.692;2023-04-16T05:18:55;6.50;99.90
70820;DHT22;58439;51.046;13.692;2023-04-16T05:21:24;6.60;99.90
70820;DHT22;58439;51.046;13.692;2023-04-16T05:23:53;6.60;99.90
70820;DHT22;58439;51.046;13.692;2023-04-16T05:26:20;6.50;99.90
70820;DHT22;58439;51.046;13.692;2023-04-16T05:28:51;6.50;99.90
70820;DHT22;58439;51.046;13.692;2023-04-16T05:31:46;6.40;99.90
70820;DHT22;58439;51.046;13.692;2023-04-16T05:34:39;6.50;99.90
70820;DHT22;58439;51.046;13.692;2023-04-16T05:37:09;6.50;99.90
70820;DHT22;58439;51.046;13.692;2023-04-16T05:39:37;6.50;99.90
70820;DHT22;58439;51.046;13.692;2023-04-16T05:42:04;6.50;99.90
70820;DHT22;58439;51.046;13.692;2023-04-16T05:44:32;6.50;99.90
70820;DHT22;58439;51.046;13.692;2023-04-16T05:47:00;6.40;99.90
70820;DHT22;58439;51.046;13.692;2023-04-16T05:49:28;6.50;99.90
70820;DHT22;58439;51.046;13.692;2023-04-16T05:51:55;6.50;99.90
70820;DHT22;58439;51.046;13.692;2023-04-16T05:54:23;6.50;99.90
70820;DHT22;58439;51.046;13.692;2023-04-16T05:56:53;6.60;99.90
70820;DHT22;58439;51.046;13.692;2023-04-16T05:59:20;6.70;99.90
70820;DHT22;58439;51.046;13.692;2023-04-16T06:01:49;6.80;99.90
70820;DHT22;58439;51.046;13.692;2023-04-16T06:04:17;6.70;99.90
70820;DHT22;58439;51.046;13.692;2023-04-16T06:06:45;6.70;99.90
70820;DHT22;58439;51.046;13.692;2023-04-16T06:09:15;6.70;99.90
70820;DHT22;58439;51.046;13.692;2023-04-16T06:11:43;6.80;99.90
70820;DHT22;58439;51.046;13.692;2023-04-16T06:14:13;6.80;99.90
70820;DHT22;58439;51.046;13.692;2023-04-16T06:16:40;6.80;99.90
70820;DHT22;58439;51.046;13.692;2023-04-16T06:19:07;6.80;99.90
70820;DHT22;58439;51.046;13.692;2023-04-16T06:21:58;6.80;99.90
70820;DHT22;58439;51.046;13.692;2023-04-16T06:24:26;6.90;99.90
70820;DHT22;58439;51.046;13.692;2023-04-16T06:26:53;7.00;99.90
70820;DHT22;58439;51.046;13.692;2023-04-16T06:29:33;7.10;99.90
70820;DHT22;58439;51.046;13.692;2023-04-16T06:32:07;7.20;99.90
70820;DHT22;58439;51.046;13.692;2023-04-16T06:34:55;7.30;99.90
70820;DHT22;58439;51.046;13.692;2023-04-16T06:37:30;7.50;99.90
70820;DHT22;58439;51.046;13.692;2023-04-16T06:40:03;7.60;99.90
70820;DHT22;58439;51.046;13.692;2023-04-16T06:42:46;7.70;99.90
70820;DHT22;58439;51.046;13.692;2023-04-16T06:48:32;8.00;99.90
70820;DHT22;58439;51.046;13.692;2023-04-16T06:51:00;8.20;99.90
70820;DHT22;58439;51.046;13.692;2023-04-16T06:53:28;8.20;99.90
70820;DHT22;58439;51.046;13.692;2023-04-16T06:55:58;8.30;99.90
70820;DHT22;58439;51.046;13.692;2023-04-16T06:58:37;8.40;99.90
70820;DHT22;58439;51.046;13.692;2023-04-16T07:01:04;8.50;99.90
70820;DHT22;58439;51.046;13.692;2023-04-16T07:03:39;8.60;99.90
70820;DHT22;58439;51.046;13.692;2023-04-16T07:06:07;8.70;99.90
70820;DHT22;58439;51.046;13.692;2023-04-16T07:08:51;8.80;99.90
70820;DHT22;58439;51.046;13.692;2023-04-16T07:11:31;8.90;99.90
70820;DHT22;58439;51.046;13.692;2023-04-16T07:13:58;9.00;99.90
70820;DHT22;58439;51.046;13.692;2023-04-16T07:16:35;9.20;99.90
70820;DHT22;58439;51.046;13.692;2023-04-16T07:30:27;9.60;99.90
70820;DHT22;58439;51.046;13.692;2023-04-16T07:33:02;9.70;99.90
70820;DHT22;58439;51.046;13.692;2023-04-16T07:35:32;9.80;99.90
70820;DHT22;58439;51.046;13.692;2023-04-16T07:38:02;9.90;99.90
70820;DHT22;58439;51.046;13.692;2023-04-16T07:40:31;10.10;99.90
70820;DHT22;58439;51.046;13.692;2023-04-16T07:43:04;10.20;99.90
70820;DHT22;58439;51.046;13.692;2023-04-16T07:49:40;10.60;99.90
70820;DHT22;58439;51.046;13.692;2023-04-16T07:56:47;11.00;99.90
70820;DHT22;58439;51.046;13.692;2023-04-16T07:59:44;11.30;99.90
70820;DHT22;58439;51.046;13.692;2023-04-16T08:02:14;11.40;99.80
70820;DHT22;58439;51.046;13.692;2023-04-16T08:04:42;11.50;99.90
70820;DHT22;58439;51.046;13.692;2023-04-16T08:07:18;11.60;99.90
70820;DHT22;58439;51.046;13.692;2023-04-16T08:10:07;11.60;99.80
70820;DHT22;58439;51.046;13.692;2023-04-16T08:47:57;13.30;95.70
70820;DHT22;58439;51.046;13.692;2023-04-16T08:50:26;13.50;95.00
70820;DHT22;58439;51.046;13.692;2023-04-16T08:53:19;13.60;94.70
70820;DHT22;58439;51.046;13.692;2023-04-16T08:55:52;13.80;94.40
70820;DHT22;58439;51.046;13.692;2023-04-16T08:58:22;13.90;94.00
70820;DHT22;58439;51.046;13.692;2023-04-16T09:00:49;13.90;93.00
70820;DHT22;58439;51.046;13.692;2023-04-16T09:03:18;14.00;93.10
70820;DHT22;58439;51.046;13.692;2023-04-16T09:05:48;14.10;92.60
70820;DHT22;58439;51.046;13.692;2023-04-16T09:08:16;14.10;92.50
70820;DHT22;58439;51.046;13.692;2023-04-16T09:10:44;14.10;92.10
70820;DHT22;58439;51.046;13.692;2023-04-16T09:13:12;14.20;92.10
70820;DHT22;58439;51.046;13.692;2023-04-16T09:16:52;14.20;91.90
70820;DHT22;58439;51.046;13.692;2023-04-16T09:20:52;14.30;91.50
70820;DHT22;58439;51.046;13.692;2023-04-16T09:23:44;14.30;90.10
70820;DHT22;58439;51.046;13.692;2023-04-16T09:33:37;14.40;90.90
70820;DHT22;58439;51.046;13.692;2023-04-16T09:36:05;14.50;90.20
70820;DHT22;58439;51.046;13.692;2023-04-16T09:38:50;14.60;90.60
70820;DHT22;58439;51.046;13.692;2023-04-16T09:41:29;14.60;90.20
70820;DHT22;58439;51.046;13.692;2023-04-16T09:44:02;14.60;90.10
70820;DHT22;58439;51.046;13.692;2023-04-16T09:46:46;14.60;89.90
70820;DHT22;58439;51.046;13.692;2023-04-16T09:49:47;14.70;87.80
70820;DHT22;58439;51.046;13.692;2023-04-16T09:52:18;14.70;87.70
70820;DHT22;58439;51.046;13.692;2023-04-16T09:55:15;14.60;87.40
70820;DHT22;58439;51.046;13.692;2023-04-16T09:58:03;14.60;88.90
70820;DHT22;58439;51.046;13.692;2023-04-16T10:00:30;14.80;88.30
70820;DHT22;58439;51.046;13.692;2023-04-16T10:03:05;14.90;86.40
70820;DHT22;58439;51.046;13.692;2023-04-16T10:05:33;14.90;83.00
70820;DHT22;58439;51.046;13.692;2023-04-16T10:08:00;14.90;82.50
70820;DHT22;58439;51.046;13.692;2023-04-16T10:10:28;15.00;82.80
70820;DHT22;58439;51.046;13.692;2023-04-16T10:12:56;15.20;82.20
70820;DHT22;58439;51.046;13.692;2023-04-16T10:15:24;15.30;79.50
70820;DHT22;58439;51.046;13.692;2023-04-16T10:17:52;15.40;76.60
70820;DHT22;58439;51.046;13.692;2023-04-16T10:20:20;15.40;76.50
70820;DHT22;58439;51.046;13.692;2023-04-16T10:22:49;15.50;76.50
70820;DHT22;58439;51.046;13.692;2023-04-16T10:25:17;15.50;73.30
70820;DHT22;58439;51.046;13.692;2023-04-16T10:27:45;15.60;73.30
70820;DHT22;58439;51.046;13.692;2023-04-16T10:30:14;15.70;71.50
70820;DHT22;58439;51.046;13.692;2023-04-16T10:32:44;15.80;72.10
70820;DHT22;58439;51.046;13.692;2023-04-16T10:35:18;15.80;64.70
70820;DHT22;58439;51.046;13.692;2023-04-16T10:37:50;15.90;64.20
70820;DHT22;58439;51.046;13.692;2023-04-16T10:40:44;15.80;60.80
70820;DHT22;58439;51.046;13.692;2023-04-16T10:43:18;15.70;60.60
70820;DHT22;58439;51.046;13.692;2023-04-16T10:45:47;15.80;62.10
70820;DHT22;58439;51.046;13.692;2023-04-16T10:48:17;15.80;62.30
70820;DHT22;58439;51.046;13.692;2023-04-16T10:50:57;15.90;62.20
70820;DHT22;58439;51.046;13.692;2023-04-16T10:53:53;16.00;63.20
70820;DHT22;58439;51.046;13.692;2023-04-16T11:49:46;17.50;44.30
70820;DHT22;58439;51.046;13.692;2023-04-16T11:53:48;17.90;43.40
70820;DHT22;58439;51.046;13.692;2023-04-16T11:57:43;18.30;42.50
70820;DHT22;58439;51.046;13.692;2023-04-16T12:00:12;18.50;41.00
70820;DHT22;58439;51.046;13.692;2023-04-16T12:02:48;18.50;40.60
70820;DHT22;58439;51.046;13.692;2023-04-16T12:05:35;18.40;40.90
70820;DHT22;58439;51.046;13.692;2023-04-16T12:08:06;18.40;41.30
70820;DHT22;58439;51.046;13.692;2023-04-16T12:10:37;18.40;40.50
70820;DHT22;58439;51.046;13.692;2023-04-16T12:13:19;18.40;40.90
70820;DHT22;58439;51.046;13.692;2023-04-16T12:15:48;18.50;40.30
70820;DHT22;58439;51.046;13.692;2023-04-16T12:18:18;18.40;40.30
70820;DHT22;58439;51.046;13.692;2023-04-16T12:20:46;18.20;39.60
70820;DHT22;58439;51.046;13.692;2023-04-16T12:23:28;18.10;40.20
70820;DHT22;58439;51.046;13.692;2023-04-16T12:26:06;18.20;39.30
70820;DHT22;58439;51.046;13.692;2023-04-16T12:28:45;18.10;38.20
70820;DHT22;58439;51.046;13.692;2023-04-16T12:31:36;18.10;38.50
70820;DHT22;58439;51.046;13.692;2023-04-16T12:34:04;18.40;38.50
70820;DHT22;58439;51.046;13.692;2023-04-16T12:37:12;18.60;37.80
70820;DHT22;58439;51.046;13.692;2023-04-16T12:43:51;18.60;40.20
70820;DHT22;58439;51.046;13.692;2023-04-16T12:46:18;18.60;40.00
70820;DHT22;58439;51.046;13.692;2023-04-16T12:48:45;18.60;38.10
70820;DHT22;58439;51.046;13.692;2023-04-16T12:51:12;18.70;38.60
70820;DHT22;58439;51.046;13.692;2023-04-16T12:53:39;18.90;37.30
70820;DHT22;58439;51.046;13.692;2023-04-16T12:56:06;19.00;36.30
70820;DHT22;58439;51.046;13.692;2023-04-16T12:58:34;19.00;36.50
70820;DHT22;58439;51.046;13.692;2023-04-16T13:01:01;19.20;36.40
70820;DHT22;58439;51.046;13.692;2023-04-16T13:03:30;19.10;36.10
70820;DHT22;58439;51.046;13.692;2023-04-16T13:06:16;19.10;36.60
70820;DHT22;58439;51.046;13.692;2023-04-16T13:09:11;19.00;38.00
70820;DHT22;58439;51.046;13.692;2023-04-16T13:11:38;18.90;38.70
70820;DHT22;58439;51.046;13.692;2023-04-16T13:14:05;18.90;36.40
70820;DHT22;58439;51.046;13.692;2023-04-16T13:16:32;18.80;36.20
70820;DHT22;58439;51.046;13.692;2023-04-16T13:18:59;18.60;36.50
70820;DHT22;58439;51.046;13.692;2023-04-16T13:21:28;18.40;38.00
70820;DHT22;58439;51.046;13.692;2023-04-16T13:23:55;18.20;38.50
70820;DHT22;58439;51.046;13.692;2023-04-16T13:26:23;18.10;38.90
70820;DHT22;58439;51.046;13.692;2023-04-16T13:28:50;18.00;39.20
70820;DHT22;58439;51.046;13.692;2023-04-16T13:31:17;18.00;39.10
70820;DHT22;58439;51.046;13.692;2023-04-16T13:33:46;17.90;38.50
70820;DHT22;58439;51.046;13.692;2023-04-16T14:05:11;16.60;48.20
70820;DHT22;58439;51.046;13.692;2023-04-16T14:14:34;16.90;48.80
70820;DHT22;58439;51.046;13.692;2023-04-16T14:24:39;17.70;51.30
70820;DHT22;58439;51.046;13.692;2023-04-16T14:27:07;18.00;48.20
70820;DHT22;58439;51.046;13.692;2023-04-16T14:29:34;18.10;47.10
70820;DHT22;58439;51.046;13.692;2023-04-16T14:32:02;18.50;47.50
70820;DHT22;58439;51.046;13.692;2023-04-16T14:34:29;19.10;46.00
70820;DHT22;58439;51.046;13.692;2023-04-16T14:36:56;19.30;43.90
70820;DHT22;58439;51.046;13.692;2023-04-16T14:39:23;19.20;44.10
70820;DHT22;58439;51.046;13.692;2023-04-16T14:41:51;18.80;44.90
70820;DHT22;58439;51.046;13.692;2023-04-16T14:44:18;18.10;47.50
70820;DHT22;58439;51.046;13.692;2023-04-16T14:46:45;18.30;49.40
70820;DHT22;58439;51.046;13.692;2023-04-16T14:49:12;19.00;47.50
70820;DHT22;58439;51.046;13.692;2023-04-16T14:51:41;19.50;46.00
70820;DHT22;58439;51.046;13.692;2023-04-16T14:54:08;19.80;45.50
70820;DHT22;58439;51.046;13.692;2023-04-16T14:56:41;20.00;44.80
70820;DHT22;58439;51.046;13.692;2023-04-16T15:02:56;19.70;45.10
70820;DHT22;58439;51.046;13.692;2023-04-16T15:05:23;18.90;46.70
70820;DHT22;58439;51.046;13.692;2023-04-16T15:07:51;18.00;48.60
70820;DHT22;58439;51.046;13.692;2023-04-16T15:10:18;17.30;52.90
70820;DHT22;58439;51.046;13.692;2023-04-16T15:12:45;17.20;63.20
70820;DHT22;58439;51.046;13.692;2023-04-16T15:15:12;17.90;60.70
70820;DHT22;58439;51.046;13.692;2023-04-16T15:17:41;18.20;53.40
70820;DHT22;58439;51.046;13.692;2023-04-16T15:20:19;17.90;52.70
70820;DHT22;58439;51.046;13.692;2023-04-16T15:22:53;17.30;55.90
70820;DHT22;58439;51.046;13.692;2023-04-16T15:25:25;17.20;60.90
70820;DHT22;58439;51.046;13.692;2023-04-16T15:28:24;17.30;58.60
70820;DHT22;58439;51.046;13.692;2023-04-16T15:30:51;17.20;60.30
70820;DHT22;58439;51.046;13.692;2023-04-16T15:33:22;17.00;62.00
70820;DHT22;58439;51.046;13.692;2023-04-16T15:35:50;17.00;60.80
70820;DHT22;58439;51.046;13.692;2023-04-16T15:38:17;17.00;60.60
70820;DHT22;58439;51.046;13.692;2023-04-16T15:40:47;17.40;58.20
70820;DHT22;58439;51.046;13.692;2023-04-16T15:43:15;17.60;54.60
70820;DHT22;58439;51.046;13.692;2023-04-16T15:45:55;17.50;54.50
70820;DHT22;58439;51.046;13.692;2023-04-16T15:48:24;17.30;57.30
70820;DHT22;58439;51.046;13.692;2023-04-16T15:50:55;17.10;59.40
70820;DHT22;58439;51.046;13.692;2023-04-16T15:53:22;17.00;58.50
70820;DHT22;58439;51.046;13.692;2023-04-16T15:56:15;16.80;62.20
70820;DHT22;58439;51.046;13.692;2023-04-16T15:58:48;16.50;66.00
70820;DHT22;58439;51.046;13.692;2023-04-16T16:01:16;16.20;71.00
70820;DHT22;58439;51.046;13.692;2023-04-16T16:03:47;15.80;76.50
70820;DHT22;58439;51.046;13.692;2023-04-16T16:12:09;15.10;83.90
70820;DHT22;58439;51.046;13.692;2023-04-16T16:19:20;14.60;90.50
70820;DHT22;58439;51.046;13.692;2023-04-16T16:22:10;14.40;91.70
70820;DHT22;58439;51.046;13.692;2023-04-16T16:25:09;14.30;92.50
70820;DHT22;58439;51.046;13.692;2023-04-16T16:28:35;14.20;94.10
70820;DHT22;58439;51.046;13.692;2023-04-16T16:34:43;13.90;95.50
70820;DHT22;58439;51.046;13.692;2023-04-16T16:38:18;13.70;96.00
70820;DHT22;58439;51.046;13.692;2023-04-16T16:41:14;13.60;96.90
70820;DHT22;58439;51.046;13.692;2023-04-16T16:44:47;13.50;98.20
70820;DHT22;58439;51.046;13.692;2023-04-16T16:47:14;13.30;99.60
70820;DHT22;58439;51.046;13.692;2023-04-16T16:49:42;13.20;99.90
70820;DHT22;58439;51.046;13.692;2023-04-16T16:52:09;13.10;99.90
70820;DHT22;58439;51.046;13.692;2023-04-16T16:56:06;13.00;99.90
70820;DHT22;58439;51.046;13.692;2023-04-16T16:59:26;12.80;99.90
70820;DHT22;58439;51.046;13.692;2023-04-16T17:01:53;12.70;99.90
70820;DHT22;58439;51.046;13.692;2023-04-16T17:04:20;12.70;99.90
70820;DHT22;58439;51.046;13.692;2023-04-16T17:06:50;12.70;99.90
70820;DHT22;58439;51.046;13.692;2023-04-16T17:10:07;12.60;99.90
70820;DHT22;58439;51.046;13.692;2023-04-16T17:12:49;12.60;99.90
70820;DHT22;58439;51.046;13.692;2023-04-16T17:15:17;12.50;99.90
70820;DHT22;58439;51.046;13.692;2023-04-16T17:17:48;12.40;99.90
70820;DHT22;58439;51.046;13.692;2023-04-16T17:20:15;12.40;99.90
70820;DHT22;58439;51.046;13.692;2023-04-16T17:22:42;12.30;99.90
70820;DHT22;58439;51.046;13.692;2023-04-16T17:25:10;12.30;99.90
70820;DHT22;58439;51.046;13.692;2023-04-16T17:27:37;12.20;99.90
70820;DHT22;58439;51.046;13.692;2023-04-16T17:30:08;12.20;99.90
70820;DHT22;58439;51.046;13.692;2023-04-16T17:32:35;12.20;99.90
70820;DHT22;58439;51.046;13.692;2023-04-16T17:35:03;12.20;99.90
70820;DHT22;58439;51.046;13.692;2023-04-16T17:37:32;12.10;99.90
70820;DHT22;58439;51.046;13.692;2023-04-16T17:40:05;12.00;99.90
70820;DHT22;58439;51.046;13.692;2023-04-16T17:43:07;11.90;99.90
70820;DHT22;58439;51.046;13.692;2023-04-16T17:45:34;11.80;99.90
70820;DHT22;58439;51.046;13.692;2023-04-16T17:48:02;11.70;99.90
70820;DHT22;58439;51.046;13.692;2023-04-16T17:50:29;11.60;99.90
70820;DHT22;58439;51.046;13.692;2023-04-16T17:53:28;11.60;99.90
70820;DHT22;58439;51.046;13.692;2023-04-16T17:56:14;11.60;99.90
70820;DHT22;58439;51.046;13.692;2023-04-16T17:58:41;11.50;99.90
70820;DHT22;58439;51.046;13.692;2023-04-16T18:01:08;11.50;99.90
70820;DHT22;58439;51.046;13.692;2023-04-16T18:03:36;11.50;99.90
70820;DHT22;58439;51.046;13.692;2023-04-16T18:06:05;11.40;99.90
70820;DHT22;58439;51.046;13.692;2023-04-16T18:08:32;11.40;99.90
70820;DHT22;58439;51.046;13.692;2023-04-16T18:11:05;11.40;99.90
70820;DHT22;58439;51.046;13.692;2023-04-16T18:13:35;11.30;99.90
70820;DHT22;58439;51.046;13.692;2023-04-16T18:16:16;11.30;99.90
70820;DHT22;58439;51.046;13.692;2023-04-16T18:18:45;11.30;99.90
70820;DHT22;58439;51.046;13.692;2023-04-16T18:21:19;11.20;99.90
70820;DHT22;58439;51.046;13.692;2023-04-16T18:23:46;11.20;99.90
70820;DHT22;58439;51.046;13.692;2023-04-16T18:26:49;11.10;99.90
70820;DHT22;58439;51.046;13.692;2023-04-16T18:30:48;11.10;99.90
70820;DHT22;58439;51.046;13.692;2023-04-16T18:37:20;11.00;99.90
70820;DHT22;58439;51.046;13.692;2023-04-16T18:40:57;11.00;99.90
70820;DHT22;58439;51.046;13.692;2023-04-16T18:43:42;11.00;99.90
70820;DHT22;58439;51.046;13.692;2023-04-16T18:46:27;11.00;99.90
70820;DHT22;58439;51.046;13.692;2023-04-16T18:48:54;11.00;99.90
70820;DHT22;58439;51.046;13.692;2023-04-16T18:51:21;10.90;99.90
70820;DHT22;58439;51.046;13.692;2023-04-16T18:53:49;10.90;99.90
70820;DHT22;58439;51.046;13.692;2023-04-16T18:56:18;10.90;99.90
70820;DHT22;58439;51.046;13.692;2023-04-16T18:58:47;11.00;99.90
70820;DHT22;58439;51.046;13.692;2023-04-16T19:01:15;11.00;99.90
70820;DHT22;58439;51.046;13.692;2023-04-16T19:03:42;10.90;99.90
70820;DHT22;58439;51.046;13.692;2023-04-16T19:06:09;10.90;99.90
70820;DHT22;58439;51.046;13.692;2023-04-16T19:08:39;10.90;99.90
70820;DHT22;58439;51.046;13.692;2023-04-16T19:11:06;10.90;99.90
70820;DHT22;58439;51.046;13.692;2023-04-16T19:13:33;10.90;99.90
70820;DHT22;58439;51.046;13.692;2023-04-16T19:16:06;10.90;99.90